sensor_id;sensor_type;location;lat;lon;timestamp;P1;durP1;ratioP1;P2;durP2;ratioP2
24206;SDS011;12351;52.284;9.160;2022-08-19T00:00:49;9.67;;;6.10;;
24206;SDS011;12351;52.284;9.160;2022-08-19T00:03:21;8.17;;;5.67;;
24206;SDS011;12351;52.284;9.160;2022-08-19T00:05:54;8.10;;;5.70;;
24206;SDS011;12351;52.284;9.160;2022-08-19T00:08:27;6.90;;;5.40;;
24206;SDS011;12351;52.284;9.160;2022-08-19T00:11:02;7.40;;;5.77;;
24206;SDS011;12351;52.284;9.160;2022-08-19T00:13:35;9.07;;;6.23;;
24206;SDS011;12351;52.284;9.160;2022-08-19T00:16:09;7.30;;;6.20;;
24206;SDS011;12351;52.284;9.160;2022-08-19T00:18:44;7.63;;;6.57;;
24206;SDS011;12351;52.284;9.160;2022-08-19T00:21:22;12.37;;;6.97;;
24206;SDS011;12351;52.284;9.160;2022-08-19T00:23:54;8.23;;;6.30;;
24206;SDS011;12351;52.284;9.160;2022-08-19T00:26:28;9.90;;;6.57;;
24206;SDS011;12351;52.284;9.160;2022-08-19T00:29:03;8.07;;;6.40;;
24206;SDS011;12351;52.284;9.160;2022-08-19T00:31:40;7.90;;;6.17;;
24206;SDS011;12351;52.284;9.160;2022-08-19T00:34:14;7.73;;;6.63;;
24206;SDS011;12351;52.284;9.160;2022-08-19T00:36:48;10.67;;;6.37;;
24206;SDS011;12351;52.284;9.160;2022-08-19T00:39:25;10.07;;;6.67;;
24206;SDS011;12351;52.284;9.160;2022-08-19T00:41:58;11.23;;;6.57;;
24206;SDS011;12351;52.284;9.160;2022-08-19T00:44:33;7.93;;;6.50;;
24206;SDS011;12351;52.284;9.160;2022-08-19T00:47:05;8.67;;;6.40;;
24206;SDS011;12351;52.284;9.160;2022-08-19T00:49:42;8.67;;;6.63;;
24206;SDS011;12351;52.284;9.160;2022-08-19T00:54:52;10.43;;;6.20;;
24206;SDS011;12351;52.284;9.160;2022-08-19T00:57:28;8.17;;;6.53;;
24206;SDS011;12351;52.284;9.160;2022-08-19T01:00:04;7.77;;;6.10;;
24206;SDS011;12351;52.284;9.160;2022-08-19T01:02:36;9.53;;;6.23;;
24206;SDS011;12351;52.284;9.160;2022-08-19T01:05:14;9.53;;;6.53;;
24206;SDS011;12351;52.284;9.160;2022-08-19T01:07:48;6.17;;;5.57;;
24206;SDS011;12351;52.284;9.160;2022-08-19T01:10:23;9.13;;;6.27;;
24206;SDS011;12351;52.284;9.160;2022-08-19T01:13:00;8.00;;;5.47;;
24206;SDS011;12351;52.284;9.160;2022-08-19T01:15:34;9.63;;;5.77;;
24206;SDS011;12351;52.284;9.160;2022-08-19T01:18:08;7.97;;;5.50;;
24206;SDS011;12351;52.284;9.160;2022-08-19T01:20:43;7.70;;;5.70;;
24206;SDS011;12351;52.284;9.160;2022-08-19T01:23:17;6.43;;;5.37;;
24206;SDS011;12351;52.284;9.160;2022-08-19T01:25:49;8.27;;;5.30;;
24206;SDS011;12351;52.284;9.160;2022-08-19T01:28:25;8.17;;;5.40;;
24206;SDS011;12351;52.284;9.160;2022-08-19T01:30:59;8.73;;;5.60;;
24206;SDS011;12351;52.284;9.160;2022-08-19T01:33:31;9.33;;;6.03;;
24206;SDS011;12351;52.284;9.160;2022-08-19T01:36:04;6.50;;;5.43;;
24206;SDS011;12351;52.284;9.160;2022-08-19T01:38:38;7.07;;;5.27;;
24206;SDS011;12351;52.284;9.160;2022-08-19T01:41:12;7.87;;;5.30;;
24206;SDS011;12351;52.284;9.160;2022-08-19T01:43:46;8.43;;;5.57;;
24206;SDS011;12351;52.284;9.160;2022-08-19T01:46:22;6.90;;;5.53;;
24206;SDS011;12351;52.284;9.160;2022-08-19T01:48:54;9.77;;;5.73;;
24206;SDS011;12351;52.284;9.160;2022-08-19T01:51:27;8.00;;;5.70;;
24206;SDS011;12351;52.284;9.160;2022-08-19T01:54:00;6.40;;;5.13;;
24206;SDS011;12351;52.284;9.160;2022-08-19T01:56:34;8.13;;;5.23;;
24206;SDS011;12351;52.284;9.160;2022-08-19T01:59:10;8.53;;;5.63;;
24206;SDS011;12351;52.284;9.160;2022-08-19T02:01:44;8.20;;;5.60;;
24206;SDS011;12351;52.284;9.160;2022-08-19T02:04:18;8.27;;;5.60;;
24206;SDS011;12351;52.284;9.160;2022-08-19T02:06:50;7.47;;;5.37;;
24206;SDS011;12351;52.284;9.160;2022-08-19T02:09:24;8.83;;;5.83;;
24206;SDS011;12351;52.284;9.160;2022-08-19T02:11:58;8.63;;;5.90;;
24206;SDS011;12351;52.284;9.160;2022-08-19T02:14:34;10.00;;;5.97;;
24206;SDS011;12351;52.284;9.160;2022-08-19T02:17:04;9.68;;;6.40;;
24206;SDS011;12351;52.284;9.160;2022-08-19T02:19:37;8.47;;;5.83;;
24206;SDS011;12351;52.284;9.160;2022-08-19T02:22:10;9.18;;;6.35;;
24206;SDS011;12351;52.284;9.160;2022-08-19T02:24:44;11.77;;;6.40;;
24206;SDS011;12351;52.284;9.160;2022-08-19T02:27:19;7.73;;;6.10;;
24206;SDS011;12351;52.284;9.160;2022-08-19T02:29:53;6.53;;;5.80;;
24206;SDS011;12351;52.284;9.160;2022-08-19T02:32:27;8.70;;;5.80;;
24206;SDS011;12351;52.284;9.160;2022-08-19T02:35:01;10.53;;;6.80;;
24206;SDS011;12351;52.284;9.160;2022-08-19T02:37:34;11.13;;;6.47;;
24206;SDS011;12351;52.284;9.160;2022-08-19T02:40:08;8.80;;;7.27;;
24206;SDS011;12351;52.284;9.160;2022-08-19T02:42:43;10.43;;;7.60;;
24206;SDS011;12351;52.284;9.160;2022-08-19T02:45:17;13.37;;;7.70;;
24206;SDS011;12351;52.284;9.160;2022-08-19T02:47:53;9.60;;;8.00;;
24206;SDS011;12351;52.284;9.160;2022-08-19T02:50:24;12.47;;;9.17;;
24206;SDS011;12351;52.284;9.160;2022-08-19T02:52:58;14.83;;;9.40;;
24206;SDS011;12351;52.284;9.160;2022-08-19T02:55:33;15.53;;;9.47;;
24206;SDS011;12351;52.284;9.160;2022-08-19T02:58:08;11.07;;;9.53;;
24206;SDS011;12351;52.284;9.160;2022-08-19T03:00:43;10.37;;;8.77;;
24206;SDS011;12351;52.284;9.160;2022-08-19T03:03:17;12.70;;;9.70;;
24206;SDS011;12351;52.284;9.160;2022-08-19T03:06:01;11.53;;;9.80;;
24206;SDS011;12351;52.284;9.160;2022-08-19T03:08:27;11.23;;;10.03;;
24206;SDS011;12351;52.284;9.160;2022-08-19T03:10:59;12.43;;;10.43;;
24206;SDS011;12351;52.284;9.160;2022-08-19T03:13:33;14.30;;;10.60;;
24206;SDS011;12351;52.284;9.160;2022-08-19T03:16:07;15.43;;;11.93;;
24206;SDS011;12351;52.284;9.160;2022-08-19T03:18:41;14.00;;;11.03;;
24206;SDS011;12351;52.284;9.160;2022-08-19T03:21:16;14.63;;;12.00;;
24206;SDS011;12351;52.284;9.160;2022-08-19T03:23:54;14.60;;;11.60;;
24206;SDS011;12351;52.284;9.160;2022-08-19T03:26:31;14.63;;;11.40;;
24206;SDS011;12351;52.284;9.160;2022-08-19T03:29:04;13.47;;;11.10;;
24206;SDS011;12351;52.284;9.160;2022-08-19T03:31:40;13.80;;;11.73;;
24206;SDS011;12351;52.284;9.160;2022-08-19T03:34:14;18.53;;;13.20;;
24206;SDS011;12351;52.284;9.160;2022-08-19T03:36:49;15.97;;;12.73;;
24206;SDS011;12351;52.284;9.160;2022-08-19T03:39:25;15.03;;;13.17;;
24206;SDS011;12351;52.284;9.160;2022-08-19T03:41:59;15.13;;;13.50;;
24206;SDS011;12351;52.284;9.160;2022-08-19T03:44:33;15.73;;;13.33;;
24206;SDS011;12351;52.284;9.160;2022-08-19T03:47:06;16.60;;;13.53;;
24206;SDS011;12351;52.284;9.160;2022-08-19T03:49:42;16.23;;;14.00;;
24206;SDS011;12351;52.284;9.160;2022-08-19T03:52:15;16.57;;;13.27;;
24206;SDS011;12351;52.284;9.160;2022-08-19T03:54:52;18.73;;;14.07;;
24206;SDS011;12351;52.284;9.160;2022-08-19T03:57:27;24.47;;;14.80;;
24206;SDS011;12351;52.284;9.160;2022-08-19T04:00:03;18.90;;;14.63;;
24206;SDS011;12351;52.284;9.160;2022-08-19T04:02:41;19.60;;;14.70;;
24206;SDS011;12351;52.284;9.160;2022-08-19T04:05:16;19.60;;;14.00;;
24206;SDS011;12351;52.284;9.160;2022-08-19T04:07:49;16.93;;;13.90;;
24206;SDS011;12351;52.284;9.160;2022-08-19T04:10:22;18.13;;;15.57;;
24206;SDS011;12351;52.284;9.160;2022-08-19T04:12:57;17.17;;;15.37;;
24206;SDS011;12351;52.284;9.160;2022-08-19T04:15:38;20.30;;;15.90;;
24206;SDS011;12351;52.284;9.160;2022-08-19T04:18:06;23.17;;;16.50;;
24206;SDS011;12351;52.284;9.160;2022-08-19T04:20:39;24.03;;;16.40;;
24206;SDS011;12351;52.284;9.160;2022-08-19T04:23:15;20.57;;;16.17;;
24206;SDS011;12351;52.284;9.160;2022-08-19T04:25:47;23.63;;;15.80;;
24206;SDS011;12351;52.284;9.160;2022-08-19T04:28:22;19.67;;;15.83;;
24206;SDS011;12351;52.284;9.160;2022-08-19T04:30:54;22.83;;;16.60;;
24206;SDS011;12351;52.284;9.160;2022-08-19T04:33:26;20.57;;;17.50;;
24206;SDS011;12351;52.284;9.160;2022-08-19T04:36:00;21.05;;;17.25;;
24206;SDS011;12351;52.284;9.160;2022-08-19T04:38:31;20.75;;;16.45;;
24206;SDS011;12351;52.284;9.160;2022-08-19T04:41:03;19.13;;;15.63;;
24206;SDS011;12351;52.284;9.160;2022-08-19T04:43:36;20.55;;;16.40;;
24206;SDS011;12351;52.284;9.160;2022-08-19T04:46:11;20.30;;;17.07;;
24206;SDS011;12351;52.284;9.160;2022-08-19T04:48:44;20.63;;;16.67;;
24206;SDS011;12351;52.284;9.160;2022-08-19T04:51:15;22.45;;;17.27;;
24206;SDS011;12351;52.284;9.160;2022-08-19T04:53:50;25.73;;;17.30;;
24206;SDS011;12351;52.284;9.160;2022-08-19T04:56:27;22.17;;;17.30;;
24206;SDS011;12351;52.284;9.160;2022-08-19T04:59:02;24.87;;;16.53;;
24206;SDS011;12351;52.284;9.160;2022-08-19T05:01:37;19.50;;;17.05;;
24206;SDS011;12351;52.284;9.160;2022-08-19T05:04:11;23.47;;;17.63;;
24206;SDS011;12351;52.284;9.160;2022-08-19T05:06:46;22.07;;;17.40;;
24206;SDS011;12351;52.284;9.160;2022-08-19T05:09:23;21.17;;;17.20;;
24206;SDS011;12351;52.284;9.160;2022-08-19T05:11:56;24.07;;;17.33;;
24206;SDS011;12351;52.284;9.160;2022-08-19T05:14:29;22.77;;;17.57;;
24206;SDS011;12351;52.284;9.160;2022-08-19T05:17:04;26.17;;;17.67;;
24206;SDS011;12351;52.284;9.160;2022-08-19T05:19:41;25.00;;;17.47;;
24206;SDS011;12351;52.284;9.160;2022-08-19T05:22:15;20.57;;;17.37;;
24206;SDS011;12351;52.284;9.160;2022-08-19T05:24:51;21.03;;;17.10;;
24206;SDS011;12351;52.284;9.160;2022-08-19T05:27:24;20.55;;;16.62;;
24206;SDS011;12351;52.284;9.160;2022-08-19T05:29:59;20.60;;;16.47;;
24206;SDS011;12351;52.284;9.160;2022-08-19T05:32:33;23.03;;;16.20;;
24206;SDS011;12351;52.284;9.160;2022-08-19T05:35:05;19.70;;;15.37;;
24206;SDS011;12351;52.284;9.160;2022-08-19T05:37:37;17.37;;;13.73;;
24206;SDS011;12351;52.284;9.160;2022-08-19T05:40:10;19.03;;;14.17;;
24206;SDS011;12351;52.284;9.160;2022-08-19T05:45:14;19.27;;;14.78;;
24206;SDS011;12351;52.284;9.160;2022-08-19T05:47:47;20.43;;;14.90;;
24206;SDS011;12351;52.284;9.160;2022-08-19T05:50:18;16.93;;;12.97;;
24206;SDS011;12351;52.284;9.160;2022-08-19T05:52:54;16.67;;;13.47;;
24206;SDS011;12351;52.284;9.160;2022-08-19T05:55:28;17.53;;;12.90;;
24206;SDS011;12351;52.284;9.160;2022-08-19T05:58:00;20.30;;;13.30;;
24206;SDS011;12351;52.284;9.160;2022-08-19T06:00:35;18.83;;;13.57;;
24206;SDS011;12351;52.284;9.160;2022-08-19T06:03:09;17.67;;;13.90;;
24206;SDS011;12351;52.284;9.160;2022-08-19T06:05:44;18.50;;;14.83;;
24206;SDS011;12351;52.284;9.160;2022-08-19T06:08:19;15.27;;;12.80;;
24206;SDS011;12351;52.284;9.160;2022-08-19T06:10:54;19.37;;;13.10;;
24206;SDS011;12351;52.284;9.160;2022-08-19T06:13:26;14.97;;;11.87;;
24206;SDS011;12351;52.284;9.160;2022-08-19T06:16:01;15.87;;;12.67;;
24206;SDS011;12351;52.284;9.160;2022-08-19T06:18:33;17.23;;;12.47;;
24206;SDS011;12351;52.284;9.160;2022-08-19T06:21:05;17.55;;;13.58;;
24206;SDS011;12351;52.284;9.160;2022-08-19T06:23:41;18.00;;;13.60;;
24206;SDS011;12351;52.284;9.160;2022-08-19T06:26:15;17.80;;;13.60;;
24206;SDS011;12351;52.284;9.160;2022-08-19T06:28:47;17.80;;;13.13;;
24206;SDS011;12351;52.284;9.160;2022-08-19T06:31:24;15.60;;;13.77;;
24206;SDS011;12351;52.284;9.160;2022-08-19T06:33:58;16.13;;;13.03;;
24206;SDS011;12351;52.284;9.160;2022-08-19T06:36:33;14.10;;;11.60;;
24206;SDS011;12351;52.284;9.160;2022-08-19T06:39:05;16.93;;;13.03;;
24206;SDS011;12351;52.284;9.160;2022-08-19T06:41:39;16.07;;;13.77;;
24206;SDS011;12351;52.284;9.160;2022-08-19T06:44:15;16.23;;;13.73;;
24206;SDS011;12351;52.284;9.160;2022-08-19T06:46:48;15.55;;;13.50;;
24206;SDS011;12351;52.284;9.160;2022-08-19T06:49:22;14.77;;;13.00;;
24206;SDS011;12351;52.284;9.160;2022-08-19T06:51:57;15.97;;;14.17;;
24206;SDS011;12351;52.284;9.160;2022-08-19T06:54:29;17.83;;;14.43;;
24206;SDS011;12351;52.284;9.160;2022-08-19T06:57:07;17.50;;;13.77;;
24206;SDS011;12351;52.284;9.160;2022-08-19T06:59:39;15.95;;;13.60;;
24206;SDS011;12351;52.284;9.160;2022-08-19T07:02:13;15.70;;;12.87;;
24206;SDS011;12351;52.284;9.160;2022-08-19T07:04:50;15.07;;;13.47;;
24206;SDS011;12351;52.284;9.160;2022-08-19T07:07:23;17.13;;;13.27;;
24206;SDS011;12351;52.284;9.160;2022-08-19T07:09:58;16.03;;;12.60;;
24206;SDS011;12351;52.284;9.160;2022-08-19T07:12:32;15.37;;;12.17;;
24206;SDS011;12351;52.284;9.160;2022-08-19T07:15:04;15.32;;;12.65;;
24206;SDS011;12351;52.284;9.160;2022-08-19T07:17:39;15.57;;;12.20;;
24206;SDS011;12351;52.284;9.160;2022-08-19T07:20:14;15.97;;;13.83;;
24206;SDS011;12351;52.284;9.160;2022-08-19T07:22:48;14.53;;;13.13;;
24206;SDS011;12351;52.284;9.160;2022-08-19T07:25:20;14.00;;;12.40;;
24206;SDS011;12351;52.284;9.160;2022-08-19T07:27:52;15.53;;;12.90;;
24206;SDS011;12351;52.284;9.160;2022-08-19T07:30:26;14.03;;;11.77;;
24206;SDS011;12351;52.284;9.160;2022-08-19T07:33:03;14.50;;;11.47;;
24206;SDS011;12351;52.284;9.160;2022-08-19T07:35:36;14.13;;;11.93;;
24206;SDS011;12351;52.284;9.160;2022-08-19T07:38:11;12.57;;;11.13;;
24206;SDS011;12351;52.284;9.160;2022-08-19T07:40:44;14.23;;;11.13;;
24206;SDS011;12351;52.284;9.160;2022-08-19T07:43:19;12.87;;;11.20;;
24206;SDS011;12351;52.284;9.160;2022-08-19T07:45:54;16.77;;;11.90;;
24206;SDS011;12351;52.284;9.160;2022-08-19T07:48:28;14.43;;;10.97;;
24206;SDS011;12351;52.284;9.160;2022-08-19T07:51:02;11.93;;;9.77;;
24206;SDS011;12351;52.284;9.160;2022-08-19T07:53:36;11.53;;;9.30;;
24206;SDS011;12351;52.284;9.160;2022-08-19T07:56:11;11.27;;;8.70;;
24206;SDS011;12351;52.284;9.160;2022-08-19T07:58:45;11.83;;;8.97;;
24206;SDS011;12351;52.284;9.160;2022-08-19T08:01:22;8.37;;;7.57;;
24206;SDS011;12351;52.284;9.160;2022-08-19T08:03:56;9.87;;;7.10;;
24206;SDS011;12351;52.284;9.160;2022-08-19T08:09:03;11.97;;;9.03;;
24206;SDS011;12351;52.284;9.160;2022-08-19T08:11:37;8.50;;;7.37;;
24206;SDS011;12351;52.284;9.160;2022-08-19T08:14:10;7.37;;;6.10;;
24206;SDS011;12351;52.284;9.160;2022-08-19T08:16:44;8.20;;;6.17;;
24206;SDS011;12351;52.284;9.160;2022-08-19T08:19:20;9.23;;;6.00;;
24206;SDS011;12351;52.284;9.160;2022-08-19T08:21:57;9.07;;;6.47;;
24206;SDS011;12351;52.284;9.160;2022-08-19T08:24:30;6.80;;;5.20;;
24206;SDS011;12351;52.284;9.160;2022-08-19T08:27:04;7.73;;;5.30;;
24206;SDS011;12351;52.284;9.160;2022-08-19T08:29:34;11.40;;;7.93;;
24206;SDS011;12351;52.284;9.160;2022-08-19T08:32:08;10.37;;;6.57;;
24206;SDS011;12351;52.284;9.160;2022-08-19T08:34:42;7.20;;;5.97;;
24206;SDS011;12351;52.284;9.160;2022-08-19T08:37:18;6.67;;;4.90;;
24206;SDS011;12351;52.284;9.160;2022-08-19T08:39:50;7.78;;;6.05;;
24206;SDS011;12351;52.284;9.160;2022-08-19T08:42:24;11.43;;;7.67;;
24206;SDS011;12351;52.284;9.160;2022-08-19T08:44:58;8.40;;;6.93;;
24206;SDS011;12351;52.284;9.160;2022-08-19T08:47:32;8.47;;;6.47;;
24206;SDS011;12351;52.284;9.160;2022-08-19T08:50:10;9.87;;;7.57;;
24206;SDS011;12351;52.284;9.160;2022-08-19T08:52:44;10.07;;;6.13;;
24206;SDS011;12351;52.284;9.160;2022-08-19T08:55:23;12.03;;;6.20;;
24206;SDS011;12351;52.284;9.160;2022-08-19T08:57:56;6.87;;;6.10;;
24206;SDS011;12351;52.284;9.160;2022-08-19T09:00:35;8.87;;;5.87;;
24206;SDS011;12351;52.284;9.160;2022-08-19T09:03:19;6.90;;;5.27;;
24206;SDS011;12351;52.284;9.160;2022-08-19T09:05:45;6.40;;;4.83;;
24206;SDS011;12351;52.284;9.160;2022-08-19T09:08:17;5.30;;;4.77;;
24206;SDS011;12351;52.284;9.160;2022-08-19T09:10:49;6.47;;;4.92;;
24206;SDS011;12351;52.284;9.160;2022-08-19T09:13:23;5.70;;;4.65;;
24206;SDS011;12351;52.284;9.160;2022-08-19T09:15:55;6.50;;;5.20;;
24206;SDS011;12351;52.284;9.160;2022-08-19T09:18:38;6.07;;;4.10;;
24206;SDS011;12351;52.284;9.160;2022-08-19T09:21:02;6.25;;;4.50;;
24206;SDS011;12351;52.284;9.160;2022-08-19T09:23:35;8.07;;;5.50;;
24206;SDS011;12351;52.284;9.160;2022-08-19T09:26:09;7.77;;;5.17;;
24206;SDS011;12351;52.284;9.160;2022-08-19T09:28:46;6.20;;;4.93;;
24206;SDS011;12351;52.284;9.160;2022-08-19T09:31:19;8.23;;;5.30;;
24206;SDS011;12351;52.284;9.160;2022-08-19T09:33:54;5.90;;;3.83;;
24206;SDS011;12351;52.284;9.160;2022-08-19T09:36:28;7.20;;;4.00;;
24206;SDS011;12351;52.284;9.160;2022-08-19T09:41:30;6.80;;;3.60;;
24206;SDS011;12351;52.284;9.160;2022-08-19T09:49:06;3.27;;;1.62;;
24206;SDS011;12351;52.284;9.160;2022-08-19T09:51:39;2.70;;;1.90;;
24206;SDS011;12351;52.284;9.160;2022-08-19T09:54:12;2.70;;;1.70;;
24206;SDS011;12351;52.284;9.160;2022-08-19T09:56:49;3.30;;;1.70;;
24206;SDS011;12351;52.284;9.160;2022-08-19T09:59:26;3.57;;;1.60;;
24206;SDS011;12351;52.284;9.160;2022-08-19T10:02:00;3.60;;;1.50;;
24206;SDS011;12351;52.284;9.160;2022-08-19T10:04:39;3.47;;;1.57;;
24206;SDS011;12351;52.284;9.160;2022-08-19T10:07:14;1.57;;;1.40;;
24206;SDS011;12351;52.284;9.160;2022-08-19T10:09:48;3.50;;;1.67;;
24206;SDS011;12351;52.284;9.160;2022-08-19T10:12:21;1.63;;;1.30;;
24206;SDS011;12351;52.284;9.160;2022-08-19T10:14:54;4.17;;;1.53;;
24206;SDS011;12351;52.284;9.160;2022-08-19T10:17:29;1.97;;;1.70;;
24206;SDS011;12351;52.284;9.160;2022-08-19T10:20:02;2.13;;;1.87;;
24206;SDS011;12351;52.284;9.160;2022-08-19T10:22:36;1.80;;;1.63;;
24206;SDS011;12351;52.284;9.160;2022-08-19T10:25:10;1.77;;;1.50;;
24206;SDS011;12351;52.284;9.160;2022-08-19T10:30:13;1.90;;;1.60;;
24206;SDS011;12351;52.284;9.160;2022-08-19T10:32:47;2.87;;;1.60;;
24206;SDS011;12351;52.284;9.160;2022-08-19T10:35:23;2.60;;;1.80;;
24206;SDS011;12351;52.284;9.160;2022-08-19T10:37:56;2.40;;;1.70;;
24206;SDS011;12351;52.284;9.160;2022-08-19T10:40:30;3.40;;;2.00;;
24206;SDS011;12351;52.284;9.160;2022-08-19T10:43:04;3.20;;;2.13;;
24206;SDS011;12351;52.284;9.160;2022-08-19T10:45:39;5.07;;;2.10;;
24206;SDS011;12351;52.284;9.160;2022-08-19T10:48:11;3.07;;;2.57;;
24206;SDS011;12351;52.284;9.160;2022-08-19T10:50:46;2.50;;;1.90;;
24206;SDS011;12351;52.284;9.160;2022-08-19T10:53:20;3.17;;;2.10;;
24206;SDS011;12351;52.284;9.160;2022-08-19T10:55:54;3.60;;;1.60;;
24206;SDS011;12351;52.284;9.160;2022-08-19T10:58:28;2.83;;;2.10;;
24206;SDS011;12351;52.284;9.160;2022-08-19T11:01:02;4.60;;;2.00;;
24206;SDS011;12351;52.284;9.160;2022-08-19T11:03:35;2.07;;;1.80;;
24206;SDS011;12351;52.284;9.160;2022-08-19T11:06:09;2.67;;;1.62;;
24206;SDS011;12351;52.284;9.160;2022-08-19T11:08:39;2.90;;;1.87;;
24206;SDS011;12351;52.284;9.160;2022-08-19T11:11:16;2.73;;;1.63;;
24206;SDS011;12351;52.284;9.160;2022-08-19T11:13:50;3.40;;;1.80;;
24206;SDS011;12351;52.284;9.160;2022-08-19T11:16:25;2.13;;;1.50;;
24206;SDS011;12351;52.284;9.160;2022-08-19T11:19:01;1.60;;;1.43;;
24206;SDS011;12351;52.284;9.160;2022-08-19T11:21:35;1.63;;;1.40;;
24206;SDS011;12351;52.284;9.160;2022-08-19T11:24:12;2.37;;;1.47;;
24206;SDS011;12351;52.284;9.160;2022-08-19T11:26:46;2.27;;;1.73;;
24206;SDS011;12351;52.284;9.160;2022-08-19T11:29:21;1.80;;;1.63;;
24206;SDS011;12351;52.284;9.160;2022-08-19T11:31:58;3.30;;;1.93;;
24206;SDS011;12351;52.284;9.160;2022-08-19T11:34:35;3.10;;;1.87;;
24206;SDS011;12351;52.284;9.160;2022-08-19T11:37:07;1.93;;;1.50;;
24206;SDS011;12351;52.284;9.160;2022-08-19T11:39:41;2.77;;;1.20;;
24206;SDS011;12351;52.284;9.160;2022-08-19T11:42:17;5.23;;;1.70;;
24206;SDS011;12351;52.284;9.160;2022-08-19T11:44:50;2.00;;;1.50;;
24206;SDS011;12351;52.284;9.160;2022-08-19T11:47:23;1.90;;;1.20;;
24206;SDS011;12351;52.284;9.160;2022-08-19T11:49:56;1.70;;;1.07;;
24206;SDS011;12351;52.284;9.160;2022-08-19T11:52:28;1.57;;;1.00;;
24206;SDS011;12351;52.284;9.160;2022-08-19T11:55:04;2.37;;;1.20;;
24206;SDS011;12351;52.284;9.160;2022-08-19T11:57:39;2.57;;;1.27;;
24206;SDS011;12351;52.284;9.160;2022-08-19T12:00:12;2.33;;;1.17;;
24206;SDS011;12351;52.284;9.160;2022-08-19T12:02:45;2.47;;;1.00;;
24206;SDS011;12351;52.284;9.160;2022-08-19T12:05:19;1.53;;;1.00;;
24206;SDS011;12351;52.284;9.160;2022-08-19T12:07:54;1.87;;;1.00;;
24206;SDS011;12351;52.284;9.160;2022-08-19T12:10:28;1.43;;;1.20;;
24206;SDS011;12351;52.284;9.160;2022-08-19T12:12:57;3.87;;;1.00;;
24206;SDS011;12351;52.284;9.160;2022-08-19T12:15:30;1.20;;;0.80;;
24206;SDS011;12351;52.284;9.160;2022-08-19T12:18:05;1.83;;;1.00;;
24206;SDS011;12351;52.284;9.160;2022-08-19T12:20:40;0.83;;;0.83;;
24206;SDS011;12351;52.284;9.160;2022-08-19T12:23:15;2.07;;;1.10;;
24206;SDS011;12351;52.284;9.160;2022-08-19T12:25:48;1.27;;;1.03;;
24206;SDS011;12351;52.284;9.160;2022-08-19T12:28:24;3.13;;;0.87;;
24206;SDS011;12351;52.284;9.160;2022-08-19T12:30:58;1.57;;;1.00;;
24206;SDS011;12351;52.284;9.160;2022-08-19T12:33:33;1.17;;;0.90;;
24206;SDS011;12351;52.284;9.160;2022-08-19T12:36:06;1.77;;;1.30;;
24206;SDS011;12351;52.284;9.160;2022-08-19T12:38:37;1.47;;;1.37;;
24206;SDS011;12351;52.284;9.160;2022-08-19T12:41:11;1.00;;;0.97;;
24206;SDS011;12351;52.284;9.160;2022-08-19T12:43:44;1.57;;;1.00;;
24206;SDS011;12351;52.284;9.160;2022-08-19T12:46:18;2.73;;;1.20;;
24206;SDS011;12351;52.284;9.160;2022-08-19T12:48:51;2.10;;;1.17;;
24206;SDS011;12351;52.284;9.160;2022-08-19T12:51:22;1.53;;;1.00;;
24206;SDS011;12351;52.284;9.160;2022-08-19T12:53:58;1.60;;;1.10;;
24206;SDS011;12351;52.284;9.160;2022-08-19T12:56:29;1.93;;;0.90;;
24206;SDS011;12351;52.284;9.160;2022-08-19T12:59:04;1.00;;;0.90;;
24206;SDS011;12351;52.284;9.160;2022-08-19T13:01:39;1.03;;;1.00;;
24206;SDS011;12351;52.284;9.160;2022-08-19T13:04:16;2.50;;;1.10;;
24206;SDS011;12351;52.284;9.160;2022-08-19T13:06:49;1.20;;;1.10;;
24206;SDS011;12351;52.284;9.160;2022-08-19T13:09:21;2.52;;;1.12;;
24206;SDS011;12351;52.284;9.160;2022-08-19T13:11:54;3.33;;;1.20;;
24206;SDS011;12351;52.284;9.160;2022-08-19T13:14:27;1.93;;;1.20;;
24206;SDS011;12351;52.284;9.160;2022-08-19T13:17:00;1.47;;;1.30;;
24206;SDS011;12351;52.284;9.160;2022-08-19T13:19:32;1.53;;;1.00;;
24206;SDS011;12351;52.284;9.160;2022-08-19T13:22:04;2.87;;;1.20;;
24206;SDS011;12351;52.284;9.160;2022-08-19T13:24:35;3.23;;;1.23;;
24206;SDS011;12351;52.284;9.160;2022-08-19T13:27:07;3.33;;;1.40;;
24206;SDS011;12351;52.284;9.160;2022-08-19T13:29:42;2.27;;;1.37;;
24206;SDS011;12351;52.284;9.160;2022-08-19T13:32:15;4.03;;;1.27;;
24206;SDS011;12351;52.284;9.160;2022-08-19T13:34:47;2.53;;;1.10;;
24206;SDS011;12351;52.284;9.160;2022-08-19T13:37:20;1.90;;;1.30;;
24206;SDS011;12351;52.284;9.160;2022-08-19T13:39:54;3.17;;;1.23;;
24206;SDS011;12351;52.284;9.160;2022-08-19T13:42:26;1.85;;;1.22;;
24206;SDS011;12351;52.284;9.160;2022-08-19T13:44:59;2.10;;;1.40;;
24206;SDS011;12351;52.284;9.160;2022-08-19T13:47:33;1.80;;;1.07;;
24206;SDS011;12351;52.284;9.160;2022-08-19T13:50:09;6.03;;;1.40;;
24206;SDS011;12351;52.284;9.160;2022-08-19T13:52:44;1.67;;;1.37;;
24206;SDS011;12351;52.284;9.160;2022-08-19T13:57:49;1.67;;;1.15;;
24206;SDS011;12351;52.284;9.160;2022-08-19T14:00:24;2.47;;;1.30;;
24206;SDS011;12351;52.284;9.160;2022-08-19T14:02:56;1.83;;;1.50;;
24206;SDS011;12351;52.284;9.160;2022-08-19T14:05:31;2.70;;;1.50;;
24206;SDS011;12351;52.284;9.160;2022-08-19T14:08:06;3.90;;;1.80;;
24206;SDS011;12351;52.284;9.160;2022-08-19T14:10:39;3.27;;;1.67;;
24206;SDS011;12351;52.284;9.160;2022-08-19T14:13:13;3.27;;;1.47;;
24206;SDS011;12351;52.284;9.160;2022-08-19T14:15:47;2.10;;;1.57;;
24206;SDS011;12351;52.284;9.160;2022-08-19T14:18:19;2.07;;;1.70;;
24206;SDS011;12351;52.284;9.160;2022-08-19T14:23:25;1.72;;;1.32;;
24206;SDS011;12351;52.284;9.160;2022-08-19T14:28:35;2.83;;;1.50;;
24206;SDS011;12351;52.284;9.160;2022-08-19T14:31:12;2.53;;;1.53;;
24206;SDS011;12351;52.284;9.160;2022-08-19T14:33:47;2.27;;;1.73;;
24206;SDS011;12351;52.284;9.160;2022-08-19T14:36:20;1.67;;;1.57;;
24206;SDS011;12351;52.284;9.160;2022-08-19T14:38:54;2.00;;;1.60;;
24206;SDS011;12351;52.284;9.160;2022-08-19T14:41:29;2.93;;;1.43;;
24206;SDS011;12351;52.284;9.160;2022-08-19T14:44:07;2.03;;;1.60;;
24206;SDS011;12351;52.284;9.160;2022-08-19T14:46:39;3.20;;;1.60;;
24206;SDS011;12351;52.284;9.160;2022-08-19T14:49:16;1.60;;;1.50;;
24206;SDS011;12351;52.284;9.160;2022-08-19T14:51:50;1.50;;;1.40;;
24206;SDS011;12351;52.284;9.160;2022-08-19T14:54:23;2.40;;;1.40;;
24206;SDS011;12351;52.284;9.160;2022-08-19T14:56:58;2.90;;;1.50;;
24206;SDS011;12351;52.284;9.160;2022-08-19T14:59:30;4.77;;;1.60;;
24206;SDS011;12351;52.284;9.160;2022-08-19T15:02:04;1.73;;;1.30;;
24206;SDS011;12351;52.284;9.160;2022-08-19T15:04:38;1.83;;;1.30;;
24206;SDS011;12351;52.284;9.160;2022-08-19T15:07:13;2.47;;;1.37;;
24206;SDS011;12351;52.284;9.160;2022-08-19T15:09:49;1.97;;;1.10;;
24206;SDS011;12351;52.284;9.160;2022-08-19T15:12:24;1.57;;;1.23;;
24206;SDS011;12351;52.284;9.160;2022-08-19T15:14:57;5.37;;;1.50;;
24206;SDS011;12351;52.284;9.160;2022-08-19T15:17:32;1.93;;;1.30;;
24206;SDS011;12351;52.284;9.160;2022-08-19T15:20:04;1.10;;;1.00;;
24206;SDS011;12351;52.284;9.160;2022-08-19T15:22:39;1.67;;;1.10;;
24206;SDS011;12351;52.284;9.160;2022-08-19T15:25:14;1.57;;;1.23;;
24206;SDS011;12351;52.284;9.160;2022-08-19T15:27:49;1.90;;;1.40;;
24206;SDS011;12351;52.284;9.160;2022-08-19T15:30:24;1.67;;;1.30;;
24206;SDS011;12351;52.284;9.160;2022-08-19T15:32:56;1.83;;;1.20;;
24206;SDS011;12351;52.284;9.160;2022-08-19T15:35:30;1.90;;;1.43;;
24206;SDS011;12351;52.284;9.160;2022-08-19T15:38:01;2.70;;;1.30;;
24206;SDS011;12351;52.284;9.160;2022-08-19T15:40:35;3.30;;;1.23;;
24206;SDS011;12351;52.284;9.160;2022-08-19T15:43:10;2.83;;;1.43;;